Time;durP1;ratioP1;P1;durP2;ratioP2;P2;SDS_P1;SDS_P2;PMS_P1;PMS_P2;Temp;Humidity;BMP_temperature;BMP_pressure;BME280_temperature;BME280_humidity;BME280_pressure;Samples;Min_cycle;Max_cycle;Signal;HPM_P1;HPM_P2
2021/05/01 00:01:19;;;;;;;35.70;22.92;;;15.10;99.90;;;14.58;84.25;100127.94;5067509;28;20036;-45
2021/05/01 00:03:45;;;;;;;35.28;22.77;;;15.10;99.90;;;14.57;84.48;100122.88;5069468;28;20063;-46
2021/05/01 00:06:11;;;;;;;37.08;22.33;;;15.10;99.90;;;14.55;84.72;100119.63;5062804;28;20036;-44
2021/05/01 00:08:38;;;;;;;37.65;22.60;;;15.10;99.90;;;14.52;85.15;100112.94;5057373;28;20087;-46
2021/05/01 00:11:04;;;;;;;33.55;23.42;;;15.10;99.90;;;14.48;85.56;100111.66;5067903;28;20042;-45
2021/05/01 00:13:33;;;;;;;38.90;23.27;;;15.10;99.90;;;14.46;85.50;100112.81;5069290;28;20036;-45
2021/05/01 00:16:01;;;;;;;31.83;22.02;;;15.00;99.90;;;14.43;85.65;100114.00;5068369;28;20126;-44
2021/05/01 00:18:27;;;;;;;37.60;22.60;;;15.00;99.90;;;14.43;85.84;100106.13;5069184;28;20519;-47
2021/05/01 00:20:53;;;;;;;35.67;22.25;;;15.00;99.90;;;14.47;85.64;100110.03;5061765;28;20044;-46
2021/05/01 00:23:19;;;;;;;35.30;22.38;;;15.00;99.90;;;14.46;85.88;100124.13;5049845;28;20032;-48
2021/05/01 00:25:45;;;;;;;34.90;22.88;;;15.00;99.90;;;14.48;86.11;100131.81;5066828;28;20389;-48
2021/05/01 00:28:12;;;;;;;33.33;20.55;;;15.00;99.90;;;14.50;86.10;100125.41;5050780;28;20024;-45
2021/05/01 00:30:39;;;;;;;32.47;20.42;;;15.00;99.90;;;14.51;86.04;100115.72;5066453;28;20097;-49
2021/05/01 00:33:06;;;;;;;26.83;18.08;;;15.10;99.90;;;14.55;85.97;100117.81;5068736;28;20358;-49
2021/05/01 00:35:33;;;;;;;31.60;18.48;;;15.10;99.90;;;14.60;85.73;100109.41;5064756;28;20056;-50
2021/05/01 00:38:00;;;;;;;28.55;17.83;;;15.10;99.90;;;14.62;85.61;100104.81;5068601;28;20079;-46
2021/05/01 00:40:26;;;;;;;29.48;17.48;;;15.10;99.90;;;14.64;85.30;100104.63;5067771;28;20032;-47
2021/05/01 00:42:52;;;;;;;26.73;17.23;;;15.20;99.90;;;14.64;85.30;100091.53;5068500;28;20393;-44
2021/05/01 00:45:19;;;;;;;26.88;16.70;;;15.20;99.90;;;14.62;85.51;100085.66;5067922;28;20455;-42
2021/05/01 00:47:45;;;;;;;24.63;15.95;;;15.20;99.90;;;14.59;85.51;100092.88;5068604;28;20067;-44
2021/05/01 00:50:12;;;;;;;25.85;13.82;;;15.10;99.90;;;14.59;85.19;100086.81;5067321;28;20040;-42
2021/05/01 00:52:39;;;;;;;19.77;14.15;;;15.10;99.90;;;14.57;85.26;100088.81;5068340;28;20488;-45
2021/05/01 00:55:07;;;;;;;25.00;14.95;;;15.10;99.90;;;14.51;85.54;100079.03;5067438;28;20097;-43
2021/05/01 00:57:36;;;;;;;29.63;15.02;;;15.10;99.90;;;14.42;85.92;100083.53;5068268;28;20028;-44
2021/05/01 01:00:15;;;;;;;23.73;14.50;;;15.00;99.90;;;14.36;85.92;100080.78;5067196;28;20106;-43
2021/05/01 01:02:42;;;;;;;25.10;14.65;;;14.90;99.90;;;14.32;86.08;100082.13;5042123;28;20037;-44
2021/05/01 01:05:09;;;;;;;27.65;14.68;;;14.90;99.90;;;14.28;86.16;100069.38;5054365;28;20039;-44
2021/05/01 01:07:35;;;;;;;26.92;14.80;;;14.80;99.90;;;14.27;86.20;100078.22;5068287;28;20429;-45
2021/05/01 01:10:01;;;;;;;26.42;13.70;;;14.80;99.90;;;14.24;86.04;100065.47;5046853;28;20468;-47
2021/05/01 01:12:27;;;;;;;23.38;12.85;;;14.80;99.90;;;14.18;86.40;100071.44;5068041;28;20037;-46
2021/05/01 01:14:58;;;;;;;18.70;10.68;;;14.80;99.90;;;14.12;86.77;100069.53;5066606;28;20104;-44
2021/05/01 01:17:25;;;;;;;19.33;10.15;;;14.70;99.90;;;14.10;86.24;100062.84;5068142;28;20039;-44
2021/05/01 01:19:52;;;;;;;19.17;10.70;;;14.70;99.90;;;14.06;86.65;100058.94;5066639;28;20056;-45
2021/05/01 01:22:19;;;;;;;20.10;12.45;;;14.60;99.90;;;14.01;86.77;100071.75;5066967;28;20048;-44
2021/05/01 01:24:46;;;;;;;17.25;10.38;;;14.60;99.90;;;13.86;87.58;100062.03;5066168;28;20427;-47
2021/05/01 01:27:12;;;;;;;18.40;10.88;;;14.50;99.90;;;13.82;87.74;100057.31;5068184;28;20087;-45
2021/05/01 01:29:42;;;;;;;16.95;8.00;;;14.40;99.90;;;13.75;87.97;100062.44;5066595;28;20432;-42
2021/05/01 01:32:10;;;;;;;16.25;7.63;;;14.30;99.90;;;13.73;87.50;100061.00;5068068;28;20115;-44
2021/05/01 01:34:42;;;;;;;20.67;11.00;;;14.30;99.90;;;13.64;87.91;100057.63;5066195;28;20044;-43
2021/05/01 01:37:10;;;;;;;17.10;7.60;;;14.20;99.90;;;13.55;88.17;100050.81;5066205;28;20110;-49
2021/05/01 01:39:36;;;;;;;16.23;8.15;;;14.20;99.90;;;13.56;87.95;100061.13;5066357;28;20086;-45
2021/05/01 01:42:02;;;;;;;18.13;9.57;;;14.10;99.90;;;13.47;88.15;100064.78;5066960;28;20044;-48
2021/05/01 01:44:28;;;;;;;13.85;9.07;;;14.10;99.90;;;13.40;88.69;100057.78;5068063;28;20028;-43
2021/05/01 01:46:55;;;;;;;20.60;12.18;;;14.00;99.90;;;13.37;88.98;100061.56;5066312;28;20115;-46
2021/05/01 01:49:21;;;;;;;22.10;12.77;;;14.00;99.90;;;13.37;89.59;100048.47;5067498;28;20052;-45
2021/05/01 01:51:47;;;;;;;19.45;6.43;;;13.90;99.90;;;13.42;88.71;100043.53;5041044;28;20069;-46
2021/05/01 01:54:13;;;;;;;11.52;5.38;;;14.00;99.90;;;13.46;88.12;100039.59;5045686;28;20021;-46
2021/05/01 01:56:39;;;;;;;11.43;6.00;;;14.00;99.90;;;13.45;87.76;100042.38;5055775;28;20050;-45
2021/05/01 01:59:06;;;;;;;18.23;7.95;;;14.00;99.90;;;13.34;88.08;100048.81;5067496;28;20486;-43
2021/05/01 02:01:34;;;;;;;17.77;9.00;;;13.90;99.90;;;13.23;88.54;100054.47;5052685;28;20115;-44
2021/05/01 02:04:00;;;;;;;17.05;9.52;;;13.90;99.90;;;13.11;89.19;100056.59;5064935;28;20622;-43
2021/05/01 02:06:26;;;;;;;18.83;10.15;;;13.70;99.90;;;13.04;89.71;100053.03;5066335;28;20029;-46
2021/05/01 02:08:55;;;;;;;20.35;10.77;;;13.60;99.90;;;13.00;89.95;100059.59;5067399;28;20032;-46
2021/05/01 02:11:21;;;;;;;12.73;8.40;;;13.60;99.90;;;13.01;90.07;100052.56;5063575;28;20522;-46
2021/05/01 02:13:48;;;;;;;15.65;8.50;;;13.60;99.90;;;13.05;90.17;100053.84;5067227;28;20071;-43
2021/05/01 02:16:14;;;;;;;17.10;6.53;;;13.60;99.90;;;13.17;89.63;100049.91;5066010;28;20500;-43
2021/05/01 02:18:40;;;;;;;16.42;8.07;;;13.70;99.90;;;13.18;89.24;100047.13;5067760;28;20024;-45
2021/05/01 02:21:06;;;;;;;21.17;7.35;;;13.80;99.90;;;13.24;89.24;100045.59;5065675;28;20163;-44
2021/05/01 02:23:32;;;;;;;15.93;8.35;;;13.80;99.90;;;13.22;89.12;100050.22;5067681;28;20523;-47
2021/05/01 02:25:59;;;;;;;17.40;7.55;;;13.80;99.90;;;13.18;89.28;100048.91;5066008;28;20037;-49
2021/05/01 02:28:25;;;;;;;18.50;8.13;;;13.80;99.90;;;13.19;89.46;100047.94;5067141;28;20131;-49
2021/05/01 02:30:51;;;;;;;23.45;9.68;;;13.70;99.90;;;13.19;89.40;100042.72;5065516;28;20080;-43
2021/05/01 02:33:17;;;;;;;15.15;7.88;;;13.70;99.90;;;13.17;89.38;100037.66;5067095;28;20025;-43
2021/05/01 02:35:43;;;;;;;12.27;5.53;;;13.70;99.90;;;13.16;89.02;100035.19;5065957;28;20382;-45
2021/05/01 02:38:10;;;;;;;12.10;4.85;;;13.70;99.90;;;13.13;88.64;100038.13;5067218;28;20040;-42
2021/05/01 02:43:12;;;;;;;13.07;5.00;;;13.60;99.90;;;13.01;88.78;100029.03;4589593;22;20066;-44
2021/05/01 02:45:39;;;;;;;13.57;5.35;;;13.60;99.90;;;12.98;88.64;100026.75;5007618;28;20042;-43
2021/05/01 02:48:06;;;;;;;11.88;4.75;;;13.50;99.90;;;12.95;88.71;100020.88;5009888;28;20033;-43
2021/05/01 02:50:33;;;;;;;12.18;5.03;;;13.50;99.90;;;12.96;88.49;100019.88;5031138;28;20369;-41
2021/05/01 02:52:59;;;;;;;9.57;5.35;;;13.50;99.90;;;12.87;88.47;100033.97;5033984;28;20095;-43
2021/05/01 02:55:26;;;;;;;10.32;5.32;;;13.50;99.90;;;12.73;89.01;100042.53;5044843;28;20041;-41
2021/05/01 02:57:53;;;;;;;10.95;5.00;;;13.30;99.90;;;12.69;88.86;100032.59;5050685;28;20037;-42
2021/05/01 03:00:23;;;;;;;11.32;5.35;;;13.30;99.90;;;12.63;89.12;100031.47;5034038;28;20063;-45
2021/05/01 03:02:50;;;;;;;11.80;5.13;;;13.20;99.90;;;12.67;89.12;100019.69;5010869;28;20501;-42
2021/05/01 03:05:16;;;;;;;8.45;4.30;;;13.20;99.90;;;12.65;88.96;100019.03;5023938;28;20029;-42
2021/05/01 03:07:43;;;;;;;8.75;3.78;;;13.20;99.90;;;12.68;89.11;100020.50;5029434;28;20115;-49
2021/05/01 03:10:21;;;;;;;12.70;4.47;;;13.20;99.90;;;12.69;88.64;100017.72;5030541;28;20043;-46
2021/05/01 03:12:47;;;;;;;7.80;4.72;;;13.20;99.90;;;12.70;88.42;100021.16;5029506;28;20045;-49
2021/05/01 03:15:15;;;;;;;8.52;4.25;;;13.20;99.90;;;12.72;88.42;100022.63;5030262;28;20084;-41
2021/05/01 03:17:43;;;;;;;6.30;3.70;;;13.30;99.90;;;12.69;88.51;100022.97;5029751;28;20099;-43
2021/05/01 03:20:12;;;;;;;11.63;3.88;;;13.20;99.90;;;12.64;88.52;100009.56;5012395;28;20049;-45
2021/05/01 03:22:39;;;;;;;10.40;4.35;;;13.20;99.90;;;12.59;89.04;100006.66;5029269;28;20381;-46
2021/05/01 03:25:09;;;;;;;7.35;3.22;;;13.20;99.90;;;12.56;89.06;100007.78;5030521;28;20046;-43
2021/05/01 03:27:37;;;;;;;12.00;3.75;;;13.10;99.90;;;12.51;88.89;99998.84;5029131;28;20292;-46
2021/05/01 03:30:11;;;;;;;6.95;3.15;;;13.10;99.90;;;12.49;89.34;99996.38;5030582;28;20103;-44
2021/05/01 03:32:38;;;;;;;7.65;3.95;;;13.00;99.90;;;12.46;89.05;99995.91;5042010;28;20591;-41
2021/05/01 03:35:06;;;;;;;9.43;2.83;;;13.00;99.90;;;12.45;89.34;99989.88;5049961;28;20028;-43
2021/05/01 03:37:32;;;;;;;7.65;3.38;;;13.00;99.90;;;12.43;89.14;99986.59;5036468;28;20032;-43
2021/05/01 03:39:59;;;;;;;8.45;2.50;;;13.00;99.90;;;12.46;88.67;99981.03;5030098;28;20479;-42
2021/05/01 03:42:25;;;;;;;7.80;2.35;;;13.00;99.90;;;12.51;88.51;99996.22;5038746;28;20049;-45
2021/05/01 03:44:51;;;;;;;6.60;3.08;;;13.00;99.90;;;12.51;88.42;99988.38;5050256;28;20040;-45
2021/05/01 03:47:18;;;;;;;4.93;2.50;;;13.10;99.90;;;12.51;88.71;99997.03;5047622;28;20025;-45
2021/05/01 03:49:44;;;;;;;14.48;3.25;;;13.00;99.90;;;12.52;88.31;99993.44;5049692;28;20059;-43
2021/05/01 03:52:10;;;;;;;7.28;2.25;;;13.10;99.90;;;12.54;88.09;99991.47;5040680;28;20496;-47
2021/05/01 03:54:36;;;;;;;9.73;2.90;;;13.10;99.90;;;12.56;88.10;99994.72;5034673;28;20076;-42
2021/05/01 03:57:02;;;;;;;5.97;2.78;;;13.10;99.90;;;12.56;88.07;99989.50;5049789;28;20422;-45
2021/05/01 03:59:28;;;;;;;7.60;2.45;;;13.10;99.90;;;12.55;88.21;99995.72;5043204;28;20108;-41
2021/05/01 04:01:54;;;;;;;6.35;2.63;;;13.10;99.90;;;12.56;88.19;99994.72;5026159;28;21933;-50
2021/05/01 04:04:20;;;;;;;8.75;2.33;;;13.10;99.90;;;12.62;87.71;99986.22;5046220;28;20135;-42
2021/05/01 04:06:47;;;;;;;5.38;2.03;;;13.10;99.90;;;12.65;87.67;99989.47;5042003;28;20400;-44
2021/05/01 04:09:13;;;;;;;4.10;1.65;;;13.20;99.90;;;12.65;87.35;99985.06;5034305;28;20041;-42
2021/05/01 04:11:42;;;;;;;5.28;2.03;;;13.20;99.90;;;12.67;87.33;99993.56;5027964;28;20133;-43
2021/05/01 04:14:08;;;;;;;7.35;2.70;;;13.20;99.90;;;12.68;87.21;99987.34;5027175;28;20303;-44
2021/05/01 04:16:35;;;;;;;8.45;4.60;;;13.20;99.90;;;12.61;87.99;99992.44;5042899;28;20144;-46
2021/05/01 04:19:01;;;;;;;10.85;3.80;;;13.20;99.90;;;12.51;88.41;99993.59;5033080;28;20076;-44
2021/05/01 04:21:27;;;;;;;8.63;3.58;;;13.20;99.90;;;12.45;88.90;99996.88;5028983;28;20041;-49
2021/05/01 04:23:53;;;;;;;6.60;3.17;;;13.10;99.90;;;12.43;89.37;100009.31;5024315;28;20021;-43
2021/05/01 04:26:20;;;;;;;8.32;3.65;;;13.10;99.90;;;12.41;89.07;100003.44;5026891;28;20087;-45
2021/05/01 04:28:48;;;;;;;13.38;5.28;;;13.10;99.90;;;12.40;89.28;100013.06;5028864;28;20159;-44
2021/05/01 04:31:14;;;;;;;10.25;4.85;;;13.10;99.90;;;12.45;89.40;100009.94;5027689;28;20049;-43
2021/05/01 04:33:40;;;;;;;14.45;4.82;;;13.10;99.90;;;13.41;87.95;100025.38;5027996;28;20119;-41
2021/05/01 04:36:06;;;;;;;12.10;5.40;;;14.20;99.90;;;13.55;86.24;100020.22;5028821;28;20475;-42
2021/05/01 04:38:33;;;;;;;12.45;5.18;;;14.50;99.90;;;13.38;86.24;100025.75;5027788;28;20100;-41
2021/05/01 04:40:59;;;;;;;12.80;5.47;;;14.40;99.90;;;13.14;86.89;100032.72;5028877;28;20051;-42
2021/05/01 04:43:26;;;;;;;10.55;4.22;;;14.10;99.90;;;13.11;87.32;100033.06;5039836;28;20037;-42
2021/05/01 04:45:54;;;;;;;5.60;3.45;;;14.00;99.90;;;13.95;84.75;100026.94;5048423;28;20396;-48
2021/05/01 04:48:22;;;;;;;9.77;2.85;;;14.70;99.90;;;14.58;82.57;100030.94;5047664;28;20051;-48
2021/05/01 04:50:52;;;;;;;12.60;3.25;;;15.60;99.90;;;15.89;78.19;100036.06;5047385;28;20033;-45
2021/05/01 04:53:19;;;;;;;7.63;4.03;;;17.40;99.90;;;17.51;72.66;100033.84;5047341;28;20033;-45
2021/05/01 04:55:45;;;;;;;5.50;3.42;;;19.40;99.90;;;18.49;69.90;100033.06;5046232;28;20037;-47
2021/05/01 04:58:12;;;;;;;10.38;3.22;;;20.80;99.90;;;19.39;67.13;100031.31;5048641;28;20472;-45
2021/05/01 05:00:38;;;;;;;6.22;1.60;;;22.00;98.10;;;20.07;64.61;100036.75;5045240;28;20041;-45
2021/05/01 05:03:04;;;;;;;5.63;1.52;;;23.10;92.20;;;19.67;64.49;100040.72;5042733;28;20032;-42
2021/05/01 05:05:30;;;;;;;3.60;1.40;;;22.90;88.20;;;19.18;65.15;100042.19;5048079;28;20113;-45
2021/05/01 05:07:56;;;;;;;3.90;1.20;;;22.10;90.40;;;18.03;68.23;100032.31;5045754;28;20033;-43
2021/05/01 05:10:23;;;;;;;6.13;1.33;;;20.80;92.60;;;17.09;70.51;100050.75;5048157;28;20200;-45
2021/05/01 05:12:49;;;;;;;5.03;0.90;;;19.30;97.20;;;16.71;71.07;100053.03;5042329;28;20381;-42
2021/05/01 05:15:15;;;;;;;4.45;0.93;;;18.60;99.90;;;16.40;71.97;100048.97;5026563;28;20052;-44
2021/05/01 05:17:42;;;;;;;5.32;1.42;;;18.20;99.90;;;16.48;71.70;100043.56;5044462;28;20037;-46
2021/05/01 05:20:09;;;;;;;3.78;1.67;;;18.20;99.90;;;16.57;71.10;100047.66;5047885;28;20089;-43
2021/05/01 05:22:35;;;;;;;7.82;1.33;;;18.30;99.90;;;16.93;70.05;100059.81;5045795;28;20441;-44
2021/05/01 05:25:02;;;;;;;5.78;1.35;;;18.60;99.90;;;17.79;67.32;100055.63;5046125;28;20044;-42
2021/05/01 05:27:29;;;;;;;3.72;1.83;;;19.70;99.90;;;17.73;67.16;100061.69;5046453;28;20037;-44
2021/05/01 05:29:55;;;;;;;5.40;1.55;;;20.20;97.70;;;17.32;68.78;100060.97;5047525;28;20040;-43
2021/05/01 05:32:24;;;;;;;6.03;2.13;;;19.80;98.30;;;17.03;68.69;100062.88;5047837;28;20048;-43
2021/05/01 05:34:53;;;;;;;7.95;2.90;;;19.40;98.80;;;16.91;69.14;100067.91;5041763;28;20032;-46
2021/05/01 05:37:20;;;;;;;12.80;3.53;;;19.00;99.90;;;16.51;71.07;100069.47;5045743;28;20044;-43
2021/05/01 05:39:49;;;;;;;10.18;4.38;;;18.60;99.90;;;16.68;70.73;100070.00;5047456;28;20533;-41
2021/05/01 05:42:16;;;;;;;8.15;3.80;;;18.50;99.90;;;16.61;70.63;100074.38;5044502;28;20136;-44
2021/05/01 05:44:48;;;;;;;8.63;3.97;;;18.30;99.90;;;16.22;72.38;100073.09;5030128;28;20041;-44
2021/05/01 05:47:19;;;;;;;11.15;4.93;;;18.00;99.90;;;16.21;72.73;100087.25;5027491;28;20034;-43
2021/05/01 05:49:47;;;;;;;8.18;3.45;;;17.80;99.90;;;15.86;73.48;100090.78;5025275;28;20045;-43
2021/05/01 05:52:13;;;;;;;12.00;3.53;;;17.60;99.90;;;15.56;74.27;100085.66;5027692;28;20171;-43
2021/05/01 05:54:40;;;;;;;9.57;4.70;;;17.00;99.90;;;15.14;76.10;100090.75;5026303;28;20037;-42
2021/05/01 05:57:11;;;;;;;12.27;4.47;;;16.40;99.90;;;15.10;76.38;100098.22;5009460;28;20038;-42
2021/05/01 05:59:38;;;;;;;9.50;4.28;;;16.20;99.90;;;15.08;76.11;100102.00;5007139;28;20128;-46
2021/05/01 06:02:08;;;;;;;10.93;3.92;;;16.00;99.90;;;15.25;76.41;100100.78;5027287;28;20029;-45
2021/05/01 06:04:44;;;;;;;9.85;4.18;;;16.10;99.90;;;15.47;75.32;100089.34;5018236;28;20492;-43
2021/05/01 06:07:34;;;;;;;7.93;3.38;;;16.30;99.90;;;16.10;73.57;100098.25;5047313;28;20033;-41
2021/05/01 06:10:06;;;;;;;8.13;3.58;;;17.00;99.90;;;16.40;72.25;100100.75;5026945;28;20044;-44
2021/05/01 06:12:36;;;;;;;8.77;3.33;;;17.40;99.90;;;16.33;73.05;100102.50;5027387;28;20041;-45
2021/05/01 06:15:10;;;;;;;7.07;2.88;;;17.40;99.90;;;15.81;74.39;100106.28;5020213;28;20061;-47
2021/05/01 06:17:37;;;;;;;6.80;3.10;;;17.20;99.90;;;16.49;72.95;100103.03;5032805;28;20168;-46
2021/05/01 06:20:12;;;;;;;4.85;2.65;;;17.80;99.90;;;16.48;72.18;100100.59;5027495;28;20054;-42
2021/05/01 06:22:39;;;;;;;6.70;3.08;;;18.20;99.90;;;16.70;71.83;100094.28;5028316;28;20048;-42
2021/05/01 06:25:08;;;;;;;6.68;3.17;;;18.00;99.90;;;16.99;71.14;100097.72;5029001;28;20094;-43
2021/05/01 06:27:34;;;;;;;8.07;3.17;;;18.20;99.90;;;17.38;69.71;100105.75;5029712;28;20069;-43
2021/05/01 06:30:07;;;;;;;7.50;3.15;;;18.90;99.90;;;18.15;67.63;100100.06;5029835;28;20119;-50
2021/05/01 06:32:33;;;;;;;6.50;2.65;;;19.90;99.90;;;18.69;65.86;100100.84;5030540;28;20041;-48
2021/05/01 06:35:01;;;;;;;6.20;3.15;;;20.50;99.90;;;18.13;67.64;100112.63;5030545;28;20124;-47
2021/05/01 06:37:28;;;;;;;9.05;3.45;;;20.00;99.90;;;18.55;66.44;100114.03;5030825;28;20041;-43
2021/05/01 06:39:58;;;;;;;8.55;3.17;;;20.40;99.90;;;19.20;64.81;100114.09;5030870;28;20040;-45
2021/05/01 06:42:35;;;;;;;5.20;2.78;;;21.40;97.70;;;18.47;65.13;100111.59;5034901;28;20111;-47
2021/05/01 06:45:16;;;;;;;8.35;3.65;;;20.70;97.30;;;18.96;64.99;100099.75;5051053;28;20143;-44
2021/05/01 06:48:00;;;;;;;11.25;3.22;;;20.60;99.70;;;19.70;61.88;100086.03;5050457;28;20036;-44
2021/05/01 06:50:28;;;;;;;7.45;3.60;;;21.90;94.50;;;19.37;64.25;100086.22;5050631;28;20464;-47
2021/05/01 06:52:56;;;;;;;4.40;2.22;;;22.00;94.10;;;19.65;62.22;100087.69;5050654;28;20040;-44
2021/05/01 06:55:30;;;;;;;8.27;2.78;;;22.20;92.00;;;19.53;61.99;100091.00;5050503;28;20061;-43
2021/05/01 06:57:58;;;;;;;8.30;2.28;;;21.90;92.40;;;19.22;63.32;100093.56;5050455;28;20318;-46
2021/05/01 07:00:27;;;;;;;6.60;2.42;;;21.40;94.10;;;19.61;62.66;100089.13;5050435;28;20465;-46
2021/05/01 07:03:04;;;;;;;3.80;1.63;;;21.70;93.70;;;20.32;59.71;100083.53;5050654;28;20037;-42
2021/05/01 07:05:31;;;;;;;4.55;1.35;;;22.50;91.70;;;20.45;59.43;100086.06;5050711;28;20037;-42
2021/05/01 07:07:58;;;;;;;2.75;1.40;;;22.70;89.80;;;20.36;59.45;100082.88;5050533;28;20063;-45
2021/05/01 07:10:24;;;;;;;5.45;2.03;;;22.50;88.90;;;20.38;59.33;100086.13;5050496;28;20053;-46
2021/05/01 07:12:50;;;;;;;6.78;1.35;;;22.10;90.10;;;20.43;58.56;100082.84;5050624;28;20036;-45
2021/05/01 07:15:19;;;;;;;2.63;1.23;;;21.70;90.80;;;20.09;59.45;100084.94;5050442;28;20392;-45
2021/05/01 07:17:51;;;;;;;4.95;1.40;;;21.30;92.20;;;20.19;59.22;100087.91;5050524;28;20033;-49
2021/05/01 07:20:19;;;;;;;5.30;1.58;;;21.10;93.50;;;20.22;59.73;100081.38;5050465;28;20036;-49
2021/05/01 07:22:48;;;;;;;7.97;1.15;;;20.90;94.30;;;20.32;59.68;100086.97;5050351;28;20052;-47
2021/05/01 07:25:15;;;;;;;4.50;1.45;;;21.10;94.80;;;20.34;59.49;100084.09;5032667;28;20080;-47
2021/05/01 07:28:05;;;;;;;6.30;1.13;;;21.20;94.40;;;20.21;58.24;100080.56;5050378;28;20033;-50
2021/05/01 07:30:42;;;;;;;4.22;1.33;;;21.30;93.50;;;20.38;59.59;100077.38;5050431;28;20086;-49
2021/05/01 07:33:14;;;;;;;3.50;1.25;;;21.30;94.40;;;20.46;59.33;100079.75;5049653;28;20072;-51
2021/05/01 07:35:44;;;;;;;6.68;1.15;;;21.30;94.70;;;20.59;58.82;100077.00;5050045;28;20045;-44
2021/05/01 07:38:12;;;;;;;4.88;1.85;;;21.40;94.80;;;21.05;57.66;100075.66;5032538;28;20041;-50
2021/05/01 07:40:40;;;;;;;3.63;0.90;;;21.60;94.10;;;21.65;56.22;100079.19;5049256;28;20024;-43
2021/05/01 07:43:14;;;;;;;3.90;1.27;;;22.10;93.10;;;21.57;55.59;100083.97;5033670;28;20201;-46
2021/05/01 07:45:40;;;;;;;5.30;0.90;;;22.20;91.90;;;21.89;55.32;100077.38;5031593;28;20045;-47
2021/05/01 07:48:10;;;;;;;5.97;1.42;;;22.50;91.50;;;21.94;54.98;100076.69;5049327;28;20029;-42
2021/05/01 07:50:36;;;;;;;6.55;1.15;;;22.80;90.80;;;21.65;56.38;100065.91;5049672;28;20047;-48
2021/05/01 07:53:04;;;;;;;5.15;1.00;;;22.60;90.90;;;22.29;55.04;100055.53;5049389;28;20029;-45
2021/05/01 07:55:30;;;;;;;4.13;0.77;;;22.90;91.10;;;22.10;54.69;100052.19;5047687;28;20145;-43
2021/05/01 07:57:56;;;;;;;3.58;0.80;;;23.00;89.80;;;21.77;55.43;100052.66;5049473;28;20064;-47
2021/05/01 08:00:23;;;;;;;3.72;0.68;;;22.90;88.80;;;22.21;54.65;100043.44;5049452;28;20049;-50
2021/05/01 08:02:49;;;;;;;3.30;0.77;;;22.80;89.80;;;22.63;53.19;100038.78;5049570;28;20029;-49
2021/05/01 08:05:21;;;;;;;1.58;0.70;;;23.30;87.40;;;22.28;53.20;100041.44;5049657;28;20047;-44
2021/05/01 08:07:50;;;;;;;3.80;0.75;;;23.10;85.90;;;22.33;53.64;100032.78;5049214;28;20044;-45
2021/05/01 08:10:17;;;;;;;4.18;0.70;;;23.00;86.40;;;22.67;53.33;100033.81;5049334;28;20107;-48
2021/05/01 08:12:43;;;;;;;2.97;0.60;;;23.40;86.00;;;22.84;52.86;100038.16;5049341;28;20041;-50
2021/05/01 08:15:10;;;;;;;1.40;0.50;;;23.60;84.70;;;22.99;52.71;100039.53;5049127;28;20134;-45
2021/05/01 08:17:38;;;;;;;2.55;0.60;;;23.80;84.20;;;23.33;51.76;100038.56;5049543;28;20048;-43
2021/05/01 08:20:05;;;;;;;2.50;0.52;;;24.10;83.10;;;23.52;51.11;100025.06;5031337;28;20033;-45
2021/05/01 08:22:32;;;;;;;1.85;0.50;;;24.30;82.20;;;22.74;52.35;100037.94;5049012;28;20027;-44
2021/05/01 08:24:58;;;;;;;2.10;0.30;;;24.00;79.30;;;22.56;52.96;100030.13;5048985;28;20045;-51
2021/05/01 08:27:25;;;;;;;1.23;0.20;;;23.60;81.70;;;22.77;51.77;100026.84;5048676;28;20044;-47
2021/05/01 08:29:51;;;;;;;1.92;0.20;;;23.60;80.60;;;22.63;50.96;100009.56;5049061;28;20037;-43
2021/05/01 08:32:17;;;;;;;2.85;0.32;;;23.50;77.90;;;22.56;51.36;100006.22;5049000;28;20033;-49
2021/05/01 08:34:44;;;;;;;3.38;0.40;;;23.40;79.50;;;22.51;51.33;100008.78;5048752;28;20488;-50
2021/05/01 08:37:11;;;;;;;1.05;0.30;;;23.30;79.00;;;22.90;51.09;100009.06;5048846;28;20063;-47
2021/05/01 08:39:38;;;;;;;1.73;0.50;;;23.60;79.30;;;22.86;51.23;100007.91;5048525;28;20087;-48
2021/05/01 08:42:05;;;;;;;1.15;0.20;;;23.60;78.70;;;22.58;50.59;100003.34;5048828;28;20392;-51
2021/05/01 08:44:31;;;;;;;0.55;0.13;;;23.40;77.20;;;22.30;50.93;100012.03;5047975;28;20033;-51
2021/05/01 08:46:57;;;;;;;0.85;0.20;;;23.00;77.80;;;22.33;50.04;99990.34;5048791;28;20540;-46
2021/05/01 08:49:23;;;;;;;2.92;0.20;;;22.90;76.80;;;22.26;49.69;99995.75;5048611;28;20165;-48
2021/05/01 08:51:49;;;;;;;3.65;0.50;;;22.80;77.20;;;22.49;49.73;99992.28;5048439;28;20040;-47
2021/05/01 08:54:15;;;;;;;2.92;0.17;;;22.90;76.80;;;22.99;48.34;99992.50;5048214;28;20445;-46
2021/05/01 08:56:43;;;;;;;1.70;0.20;;;23.50;75.60;;;22.53;48.08;99988.13;5048738;28;20387;-47
2021/05/01 08:59:10;;;;;;;2.50;0.20;;;23.30;72.40;;;22.22;49.68;99988.50;5048455;28;20495;-46
2021/05/01 09:01:38;;;;;;;5.25;0.57;;;23.00;74.90;;;22.48;48.51;99990.66;5048400;28;20033;-51
2021/05/01 09:04:09;;;;;;;1.33;0.20;;;23.10;74.00;;;22.40;48.04;99991.03;5048634;28;20200;-46
2021/05/01 09:06:37;;;;;;;3.53;0.20;;;23.00;73.80;;;22.42;48.40;99991.59;5048628;28;20052;-45
2021/05/01 09:09:09;;;;;;;1.92;0.10;;;23.10;73.00;;;22.91;47.59;99986.75;5048141;28;20036;-45
2021/05/01 09:11:42;;;;;;;4.72;0.82;;;23.40;73.30;;;22.95;46.73;99994.03;5048226;28;20117;-45
2021/05/01 09:14:26;;;;;;;1.27;0.20;;;23.50;71.90;;;23.19;45.83;99986.75;5048108;28;20051;-47
2021/05/01 09:17:07;;;;;;;3.50;0.20;;;23.70;70.60;;;23.76;45.20;99989.31;5047756;28;20191;-46
2021/05/01 09:19:41;;;;;;;4.20;0.20;;;24.10;71.00;;;23.99;45.30;99986.50;5047701;28;20116;-48
2021/05/01 09:22:16;;;;;;;4.55;0.60;;;24.50;70.50;;;24.61;44.93;99977.47;5047904;28;20181;-43
2021/05/01 09:24:43;;;;;;;3.45;0.35;;;25.10;70.20;;;24.77;45.28;99980.06;5047865;28;20045;-43
2021/05/01 09:27:16;;;;;;;2.42;0.30;;;25.40;69.70;;;24.87;44.59;99986.56;5047775;28;20041;-51
2021/05/01 09:29:42;;;;;;;2.30;0.52;;;25.60;68.10;;;24.52;45.53;99987.78;5047946;28;20060;-46
2021/05/01 09:32:28;;;;;;;4.25;0.40;;;25.40;68.10;;;24.32;43.40;99974.19;5047908;28;20051;-50
2021/05/01 09:34:57;;;;;;;4.90;1.13;;;25.40;65.00;;;23.77;46.32;99977.63;5047357;28;20037;-50
2021/05/01 09:37:27;;;;;;;1.88;0.43;;;24.90;67.80;;;23.73;46.92;99965.88;5047065;28;20051;-48
2021/05/01 09:39:56;;;;;;;2.80;0.30;;;24.50;69.30;;;23.74;47.02;99962.16;5029844;28;20033;-48
2021/05/01 09:42:24;;;;;;;3.35;0.20;;;24.50;70.10;;;23.90;46.27;99971.19;5047269;28;20049;-47
2021/05/01 09:45:09;;;;;;;3.40;0.30;;;24.60;69.10;;;24.42;46.01;99963.69;5047533;28;20403;-50
2021/05/01 09:47:36;;;;;;;2.25;0.32;;;24.90;69.10;;;24.86;45.35;99968.97;5047541;28;20491;-46
2021/05/01 09:50:38;;;;;;;1.17;0.30;;;25.30;69.10;;;25.20;43.29;99970.41;5044390;28;20469;-46
2021/05/01 09:53:13;;;;;;;5.75;0.60;;;25.80;66.50;;;24.94;43.24;99979.19;4966021;28;20042;-50
2021/05/01 09:55:54;;;;;;;2.00;0.40;;;25.80;66.00;;;24.88;43.41;99972.19;4965954;28;20506;-47
2021/05/01 09:58:29;;;;;;;3.10;0.38;;;25.70;64.60;;;25.02;43.72;99971.59;4965151;28;20133;-46
2021/05/01 10:01:14;;;;;;;1.15;0.30;;;25.80;66.00;;;25.41;42.52;99966.88;4962542;28;20122;-47
2021/05/01 10:03:41;;;;;;;2.40;0.40;;;26.00;64.70;;;25.96;42.65;99963.06;4962597;28;20035;-51
2021/05/01 10:06:11;;;;;;;4.55;0.30;;;26.30;65.50;;;26.40;41.32;99971.59;4947170;28;20038;-49
2021/05/01 10:08:38;;;;;;;1.63;0.20;;;26.90;63.70;;;25.92;42.03;99966.50;4950072;28;20057;-47
2021/05/01 10:11:13;;;;;;;2.42;0.22;;;26.80;63.00;;;25.42;40.88;99968.50;4948311;28;20170;-48
2021/05/01 10:13:53;;;;;;;1.85;0.20;;;26.50;60.60;;;25.00;42.43;99962.25;4964914;28;20495;-49
2021/05/01 10:16:20;;;;;;;2.28;0.25;;;25.90;62.60;;;24.99;43.88;99957.97;4965720;28;20046;-46
2021/05/01 10:19:10;;;;;;;1.98;0.20;;;25.60;64.70;;;25.36;41.27;99961.50;4965831;28;20327;-47